sensor_id;sensor_type;location;lat;lon;timestamp;temperature;humidity
20546;DHT22;10431;50.228;9.112;2023-04-24T00:00:23;19.20;92.00
20546;DHT22;10431;50.228;9.112;2023-04-24T00:02:49;19.20;92.00
20546;DHT22;10431;50.228;9.112;2023-04-24T00:05:16;19.20;92.00
20546;DHT22;10431;50.228;9.112;2023-04-24T00:07:44;19.20;91.90
20546;DHT22;10431;50.228;9.112;2023-04-24T00:10:11;19.20;92.00
20546;DHT22;10431;50.228;9.112;2023-04-24T00:12:38;19.20;91.90
20546;DHT22;10431;50.228;9.112;2023-04-24T00:15:05;19.20;91.90
20546;DHT22;10431;50.228;9.112;2023-04-24T00:17:31;19.20;91.90
20546;DHT22;10431;50.228;9.112;2023-04-24T00:19:58;19.20;92.00
20546;DHT22;10431;50.228;9.112;2023-04-24T00:22:25;19.20;92.00
20546;DHT22;10431;50.228;9.112;2023-04-24T00:24:51;19.20;92.00
20546;DHT22;10431;50.228;9.112;2023-04-24T00:27:18;19.20;91.90
20546;DHT22;10431;50.228;9.112;2023-04-24T00:29:44;19.20;91.90
20546;DHT22;10431;50.228;9.112;2023-04-24T00:32:10;19.10;92.00
20546;DHT22;10431;50.228;9.112;2023-04-24T00:34:36;19.20;91.90
20546;DHT22;10431;50.228;9.112;2023-04-24T00:37:03;19.10;92.00
20546;DHT22;10431;50.228;9.112;2023-04-24T00:39:29;19.20;91.90
20546;DHT22;10431;50.228;9.112;2023-04-24T00:41:56;19.20;91.90
20546;DHT22;10431;50.228;9.112;2023-04-24T00:44:22;19.20;92.00
20546;DHT22;10431;50.228;9.112;2023-04-24T00:46:49;19.10;91.90
20546;DHT22;10431;50.228;9.112;2023-04-24T00:49:21;19.10;92.00
20546;DHT22;10431;50.228;9.112;2023-04-24T00:51:48;19.10;91.90
20546;DHT22;10431;50.228;9.112;2023-04-24T00:54:15;19.20;92.00
20546;DHT22;10431;50.228;9.112;2023-04-24T00:56:42;19.10;92.00
20546;DHT22;10431;50.228;9.112;2023-04-24T00:59:14;19.20;92.00
20546;DHT22;10431;50.228;9.112;2023-04-24T01:01:42;19.20;92.00
20546;DHT22;10431;50.228;9.112;2023-04-24T01:04:09;19.10;92.00
20546;DHT22;10431;50.228;9.112;2023-04-24T01:06:38;19.20;92.00
20546;DHT22;10431;50.228;9.112;2023-04-24T01:09:04;19.10;92.00
20546;DHT22;10431;50.228;9.112;2023-04-24T01:11:31;19.10;91.90
20546;DHT22;10431;50.228;9.112;2023-04-24T01:13:57;19.10;92.00
20546;DHT22;10431;50.228;9.112;2023-04-24T01:16:24;19.10;92.00
20546;DHT22;10431;50.228;9.112;2023-04-24T01:18:51;19.20;91.90
20546;DHT22;10431;50.228;9.112;2023-04-24T01:21:20;19.10;92.00
20546;DHT22;10431;50.228;9.112;2023-04-24T01:23:47;19.10;92.00
20546;DHT22;10431;50.228;9.112;2023-04-24T01:26:15;19.10;92.00
20546;DHT22;10431;50.228;9.112;2023-04-24T01:28:41;19.10;91.90
20546;DHT22;10431;50.228;9.112;2023-04-24T01:31:08;19.10;91.90
20546;DHT22;10431;50.228;9.112;2023-04-24T01:33:34;19.20;91.90
20546;DHT22;10431;50.228;9.112;2023-04-24T01:36:00;19.10;91.90
20546;DHT22;10431;50.228;9.112;2023-04-24T01:38:27;19.10;91.90
20546;DHT22;10431;50.228;9.112;2023-04-24T01:40:53;19.10;91.90
20546;DHT22;10431;50.228;9.112;2023-04-24T01:43:20;19.10;91.90
20546;DHT22;10431;50.228;9.112;2023-04-24T01:45:46;19.10;91.90
20546;DHT22;10431;50.228;9.112;2023-04-24T01:48:13;19.10;92.00
20546;DHT22;10431;50.228;9.112;2023-04-24T01:50:39;19.10;91.90
20546;DHT22;10431;50.228;9.112;2023-04-24T01:53:06;19.10;91.90
20546;DHT22;10431;50.228;9.112;2023-04-24T01:55:32;19.10;91.90
20546;DHT22;10431;50.228;9.112;2023-04-24T01:57:59;19.10;91.90
20546;DHT22;10431;50.228;9.112;2023-04-24T02:00:26;19.10;91.90
20546;DHT22;10431;50.228;9.112;2023-04-24T02:02:53;19.10;92.00
20546;DHT22;10431;50.228;9.112;2023-04-24T02:05:19;19.10;92.00
20546;DHT22;10431;50.228;9.112;2023-04-24T02:07:45;19.10;92.00
20546;DHT22;10431;50.228;9.112;2023-04-24T02:10:12;19.10;91.90
20546;DHT22;10431;50.228;9.112;2023-04-24T02:12:42;19.10;91.90
20546;DHT22;10431;50.228;9.112;2023-04-24T02:15:08;19.10;91.90
20546;DHT22;10431;50.228;9.112;2023-04-24T02:17:37;19.10;91.90
20546;DHT22;10431;50.228;9.112;2023-04-24T02:20:05;19.10;91.90
20546;DHT22;10431;50.228;9.112;2023-04-24T02:22:32;19.10;91.90
20546;DHT22;10431;50.228;9.112;2023-04-24T02:25:01;19.10;91.90
20546;DHT22;10431;50.228;9.112;2023-04-24T02:27:28;19.10;91.80
20546;DHT22;10431;50.228;9.112;2023-04-24T02:29:55;19.10;91.90
20546;DHT22;10431;50.228;9.112;2023-04-24T02:32:21;19.10;91.80
20546;DHT22;10431;50.228;9.112;2023-04-24T02:34:48;19.10;91.90
20546;DHT22;10431;50.228;9.112;2023-04-24T02:37:14;19.10;91.90
20546;DHT22;10431;50.228;9.112;2023-04-24T02:39:40;19.10;91.80
20546;DHT22;10431;50.228;9.112;2023-04-24T02:42:06;19.10;91.80
20546;DHT22;10431;50.228;9.112;2023-04-24T02:44:35;19.10;91.80
20546;DHT22;10431;50.228;9.112;2023-04-24T02:47:01;19.10;91.80
20546;DHT22;10431;50.228;9.112;2023-04-24T02:49:27;19.10;91.90
20546;DHT22;10431;50.228;9.112;2023-04-24T02:51:54;19.10;91.80
20546;DHT22;10431;50.228;9.112;2023-04-24T02:54:20;19.10;91.80
20546;DHT22;10431;50.228;9.112;2023-04-24T02:56:46;19.10;91.80
20546;DHT22;10431;50.228;9.112;2023-04-24T02:59:12;19.00;91.80
20546;DHT22;10431;50.228;9.112;2023-04-24T03:01:38;19.10;91.80
20546;DHT22;10431;50.228;9.112;2023-04-24T03:04:05;19.10;91.80
20546;DHT22;10431;50.228;9.112;2023-04-24T03:06:31;19.00;91.80
20546;DHT22;10431;50.228;9.112;2023-04-24T03:08:58;19.00;91.80
20546;DHT22;10431;50.228;9.112;2023-04-24T03:11:25;19.10;91.80
20546;DHT22;10431;50.228;9.112;2023-04-24T03:13:51;19.10;91.80
20546;DHT22;10431;50.228;9.112;2023-04-24T03:16:19;19.00;91.80
20546;DHT22;10431;50.228;9.112;2023-04-24T03:18:46;19.10;91.80
20546;DHT22;10431;50.228;9.112;2023-04-24T03:21:13;19.00;91.80
20546;DHT22;10431;50.228;9.112;2023-04-24T03:23:39;19.00;91.80
20546;DHT22;10431;50.228;9.112;2023-04-24T03:26:07;19.00;91.80
20546;DHT22;10431;50.228;9.112;2023-04-24T03:28:35;19.00;91.80
20546;DHT22;10431;50.228;9.112;2023-04-24T03:31:03;19.00;91.80
20546;DHT22;10431;50.228;9.112;2023-04-24T03:33:33;19.00;91.80
20546;DHT22;10431;50.228;9.112;2023-04-24T03:36:01;19.00;91.80
20546;DHT22;10431;50.228;9.112;2023-04-24T03:38:35;19.00;91.80
20546;DHT22;10431;50.228;9.112;2023-04-24T03:41:17;19.00;91.80
20546;DHT22;10431;50.228;9.112;2023-04-24T03:43:48;19.00;91.80
20546;DHT22;10431;50.228;9.112;2023-04-24T03:46:15;19.00;91.80
20546;DHT22;10431;50.228;9.112;2023-04-24T03:48:47;19.00;91.80
20546;DHT22;10431;50.228;9.112;2023-04-24T03:51:15;19.00;91.80
20546;DHT22;10431;50.228;9.112;2023-04-24T03:53:44;19.00;91.80
20546;DHT22;10431;50.228;9.112;2023-04-24T03:56:14;19.00;91.70
20546;DHT22;10431;50.228;9.112;2023-04-24T03:58:41;19.00;91.70
20546;DHT22;10431;50.228;9.112;2023-04-24T04:01:08;19.00;91.70
20546;DHT22;10431;50.228;9.112;2023-04-24T04:03:54;19.00;91.70
20546;DHT22;10431;50.228;9.112;2023-04-24T04:06:23;19.00;91.70
20546;DHT22;10431;50.228;9.112;2023-04-24T04:08:51;19.00;91.70
20546;DHT22;10431;50.228;9.112;2023-04-24T04:11:18;19.00;91.80
20546;DHT22;10431;50.228;9.112;2023-04-24T04:13:45;19.00;91.80
20546;DHT22;10431;50.228;9.112;2023-04-24T04:16:15;19.00;91.80
20546;DHT22;10431;50.228;9.112;2023-04-24T04:18:44;19.00;91.70
20546;DHT22;10431;50.228;9.112;2023-04-24T04:21:11;19.00;91.70
20546;DHT22;10431;50.228;9.112;2023-04-24T04:23:38;19.00;91.70
20546;DHT22;10431;50.228;9.112;2023-04-24T04:26:11;19.00;91.70
20546;DHT22;10431;50.228;9.112;2023-04-24T04:28:53;19.00;91.70
20546;DHT22;10431;50.228;9.112;2023-04-24T04:31:21;19.00;91.70
20546;DHT22;10431;50.228;9.112;2023-04-24T04:33:48;19.00;91.70
20546;DHT22;10431;50.228;9.112;2023-04-24T04:36:14;19.00;91.70
20546;DHT22;10431;50.228;9.112;2023-04-24T04:38:45;19.00;91.70
20546;DHT22;10431;50.228;9.112;2023-04-24T04:41:25;19.00;91.70
20546;DHT22;10431;50.228;9.112;2023-04-24T04:43:53;19.00;91.70
20546;DHT22;10431;50.228;9.112;2023-04-24T04:46:19;18.90;91.70
20546;DHT22;10431;50.228;9.112;2023-04-24T04:48:56;18.90;91.70
20546;DHT22;10431;50.228;9.112;2023-04-24T04:51:25;18.90;91.70
20546;DHT22;10431;50.228;9.112;2023-04-24T04:53:52;19.00;91.80
20546;DHT22;10431;50.228;9.112;2023-04-24T04:56:18;19.00;91.60
20546;DHT22;10431;50.228;9.112;2023-04-24T04:58:46;19.00;91.50
20546;DHT22;10431;50.228;9.112;2023-04-24T05:01:15;19.00;91.70
20546;DHT22;10431;50.228;9.112;2023-04-24T05:03:45;19.00;91.70
20546;DHT22;10431;50.228;9.112;2023-04-24T05:06:13;19.10;91.70
20546;DHT22;10431;50.228;9.112;2023-04-24T05:08:40;19.10;91.60
20546;DHT22;10431;50.228;9.112;2023-04-24T05:11:11;19.20;91.50
20546;DHT22;10431;50.228;9.112;2023-04-24T05:13:39;19.30;91.40
20546;DHT22;10431;50.228;9.112;2023-04-24T05:16:08;19.30;91.40
20546;DHT22;10431;50.228;9.112;2023-04-24T05:18:35;19.30;91.30
20546;DHT22;10431;50.228;9.112;2023-04-24T05:21:01;19.30;91.30
20546;DHT22;10431;50.228;9.112;2023-04-24T05:23:28;19.30;91.20
20546;DHT22;10431;50.228;9.112;2023-04-24T05:25:56;19.40;91.20
20546;DHT22;10431;50.228;9.112;2023-04-24T05:28:22;19.40;91.20
20546;DHT22;10431;50.228;9.112;2023-04-24T05:31:01;19.40;91.20
20546;DHT22;10431;50.228;9.112;2023-04-24T05:33:28;19.40;91.10
20546;DHT22;10431;50.228;9.112;2023-04-24T05:35:55;19.40;91.10
20546;DHT22;10431;50.228;9.112;2023-04-24T05:38:21;19.40;91.00
20546;DHT22;10431;50.228;9.112;2023-04-24T05:40:47;19.50;91.10
20546;DHT22;10431;50.228;9.112;2023-04-24T05:43:14;19.50;91.00
20546;DHT22;10431;50.228;9.112;2023-04-24T05:45:40;19.50;91.00
20546;DHT22;10431;50.228;9.112;2023-04-24T05:48:06;19.50;91.00
20546;DHT22;10431;50.228;9.112;2023-04-24T05:50:33;19.40;91.00
20546;DHT22;10431;50.228;9.112;2023-04-24T05:52:59;19.50;91.00
20546;DHT22;10431;50.228;9.112;2023-04-24T05:55:31;19.40;91.00
20546;DHT22;10431;50.228;9.112;2023-04-24T05:57:57;19.40;91.00
20546;DHT22;10431;50.228;9.112;2023-04-24T06:00:25;19.40;91.00
20546;DHT22;10431;50.228;9.112;2023-04-24T06:03:00;19.40;90.90
20546;DHT22;10431;50.228;9.112;2023-04-24T06:05:27;19.40;90.90
20546;DHT22;10431;50.228;9.112;2023-04-24T06:07:53;19.30;90.80
20546;DHT22;10431;50.228;9.112;2023-04-24T06:10:21;19.30;90.70
20546;DHT22;10431;50.228;9.112;2023-04-24T06:12:49;19.30;90.60
20546;DHT22;10431;50.228;9.112;2023-04-24T06:15:17;19.10;86.90
20546;DHT22;10431;50.228;9.112;2023-04-24T06:17:52;18.60;84.70
20546;DHT22;10431;50.228;9.112;2023-04-24T06:20:20;18.40;84.00
20546;DHT22;10431;50.228;9.112;2023-04-24T06:22:46;18.00;82.00
20546;DHT22;10431;50.228;9.112;2023-04-24T06:25:12;17.80;80.80
20546;DHT22;10431;50.228;9.112;2023-04-24T06:27:38;17.70;80.20
20546;DHT22;10431;50.228;9.112;2023-04-24T06:30:05;17.60;79.00
20546;DHT22;10431;50.228;9.112;2023-04-24T06:32:33;17.50;79.20
20546;DHT22;10431;50.228;9.112;2023-04-24T06:34:59;17.70;80.10
20546;DHT22;10431;50.228;9.112;2023-04-24T06:37:25;18.10;81.10
20546;DHT22;10431;50.228;9.112;2023-04-24T06:39:52;18.40;81.90
20546;DHT22;10431;50.228;9.112;2023-04-24T06:42:18;18.70;81.00
20546;DHT22;10431;50.228;9.112;2023-04-24T06:44:48;18.90;80.20
20546;DHT22;10431;50.228;9.112;2023-04-24T06:47:14;19.00;80.70
20546;DHT22;10431;50.228;9.112;2023-04-24T06:49:41;19.10;79.60
20546;DHT22;10431;50.228;9.112;2023-04-24T06:52:08;19.10;77.80
20546;DHT22;10431;50.228;9.112;2023-04-24T06:54:34;19.20;76.90
20546;DHT22;10431;50.228;9.112;2023-04-24T06:57:00;19.10;78.30
20546;DHT22;10431;50.228;9.112;2023-04-24T06:59:28;19.10;77.40
20546;DHT22;10431;50.228;9.112;2023-04-24T07:01:55;19.10;76.60
20546;DHT22;10431;50.228;9.112;2023-04-24T07:04:21;19.30;76.40
20546;DHT22;10431;50.228;9.112;2023-04-24T07:06:47;19.40;76.70
20546;DHT22;10431;50.228;9.112;2023-04-24T07:09:15;19.40;77.00
20546;DHT22;10431;50.228;9.112;2023-04-24T07:11:43;19.50;77.30
20546;DHT22;10431;50.228;9.112;2023-04-24T07:14:10;19.50;77.60
20546;DHT22;10431;50.228;9.112;2023-04-24T07:16:36;19.50;78.00
20546;DHT22;10431;50.228;9.112;2023-04-24T07:19:03;19.40;78.10
20546;DHT22;10431;50.228;9.112;2023-04-24T07:21:29;19.40;78.40
20546;DHT22;10431;50.228;9.112;2023-04-24T07:23:58;19.40;78.70
20546;DHT22;10431;50.228;9.112;2023-04-24T07:26:25;19.40;78.70
20546;DHT22;10431;50.228;9.112;2023-04-24T07:28:52;19.40;79.00
20546;DHT22;10431;50.228;9.112;2023-04-24T07:31:19;19.40;79.00
20546;DHT22;10431;50.228;9.112;2023-04-24T07:33:45;19.40;79.00
20546;DHT22;10431;50.228;9.112;2023-04-24T07:36:11;19.50;79.00
20546;DHT22;10431;50.228;9.112;2023-04-24T07:38:42;19.50;79.00
20546;DHT22;10431;50.228;9.112;2023-04-24T07:41:08;19.60;79.00
20546;DHT22;10431;50.228;9.112;2023-04-24T07:43:35;19.60;79.10
20546;DHT22;10431;50.228;9.112;2023-04-24T07:46:01;19.70;79.10
20546;DHT22;10431;50.228;9.112;2023-04-24T07:48:27;19.70;79.10
20546;DHT22;10431;50.228;9.112;2023-04-24T07:50:54;19.70;79.10
20546;DHT22;10431;50.228;9.112;2023-04-24T07:53:20;19.80;79.20
20546;DHT22;10431;50.228;9.112;2023-04-24T07:55:46;19.80;79.10
20546;DHT22;10431;50.228;9.112;2023-04-24T07:58:13;19.80;79.20
20546;DHT22;10431;50.228;9.112;2023-04-24T08:00:39;19.80;79.20
20546;DHT22;10431;50.228;9.112;2023-04-24T08:03:05;19.80;79.20
20546;DHT22;10431;50.228;9.112;2023-04-24T08:05:31;19.70;79.30
20546;DHT22;10431;50.228;9.112;2023-04-24T08:07:58;19.70;79.50
20546;DHT22;10431;50.228;9.112;2023-04-24T08:10:25;19.70;79.70
20546;DHT22;10431;50.228;9.112;2023-04-24T08:12:51;19.60;79.70
20546;DHT22;10431;50.228;9.112;2023-04-24T08:15:18;19.60;79.80
20546;DHT22;10431;50.228;9.112;2023-04-24T08:17:44;19.60;79.80
20546;DHT22;10431;50.228;9.112;2023-04-24T08:20:11;19.60;79.80
20546;DHT22;10431;50.228;9.112;2023-04-24T08:22:41;19.60;80.00
20546;DHT22;10431;50.228;9.112;2023-04-24T08:25:08;19.50;79.90
20546;DHT22;10431;50.228;9.112;2023-04-24T08:27:34;19.50;80.00
20546;DHT22;10431;50.228;9.112;2023-04-24T08:30:03;19.50;80.10
20546;DHT22;10431;50.228;9.112;2023-04-24T08:32:30;19.50;80.20
20546;DHT22;10431;50.228;9.112;2023-04-24T08:34:57;19.50;80.50
20546;DHT22;10431;50.228;9.112;2023-04-24T08:37:23;19.40;80.70
20546;DHT22;10431;50.228;9.112;2023-04-24T08:39:50;19.40;80.60
20546;DHT22;10431;50.228;9.112;2023-04-24T08:42:20;19.40;80.70
20546;DHT22;10431;50.228;9.112;2023-04-24T08:44:49;19.30;80.80
20546;DHT22;10431;50.228;9.112;2023-04-24T08:47:15;19.30;81.20
20546;DHT22;10431;50.228;9.112;2023-04-24T08:49:43;19.30;81.30
20546;DHT22;10431;50.228;9.112;2023-04-24T08:52:09;19.30;80.80
20546;DHT22;10431;50.228;9.112;2023-04-24T08:54:36;19.30;80.70
20546;DHT22;10431;50.228;9.112;2023-04-24T08:57:03;19.50;82.10
20546;DHT22;10431;50.228;9.112;2023-04-24T08:59:32;19.60;81.20
20546;DHT22;10431;50.228;9.112;2023-04-24T09:02:00;19.70;81.30
20546;DHT22;10431;50.228;9.112;2023-04-24T09:04:28;19.70;81.40
20546;DHT22;10431;50.228;9.112;2023-04-24T09:06:56;19.70;81.50
20546;DHT22;10431;50.228;9.112;2023-04-24T09:09:24;19.70;81.70
20546;DHT22;10431;50.228;9.112;2023-04-24T09:11:52;19.80;82.50
20546;DHT22;10431;50.228;9.112;2023-04-24T09:14:21;20.00;82.50
20546;DHT22;10431;50.228;9.112;2023-04-24T09:16:49;20.10;83.30
20546;DHT22;10431;50.228;9.112;2023-04-24T09:19:17;20.00;83.60
20546;DHT22;10431;50.228;9.112;2023-04-24T09:21:46;20.00;83.80
20546;DHT22;10431;50.228;9.112;2023-04-24T09:24:17;20.00;84.40
20546;DHT22;10431;50.228;9.112;2023-04-24T09:26:44;19.90;84.60
20546;DHT22;10431;50.228;9.112;2023-04-24T09:29:15;19.90;85.20
20546;DHT22;10431;50.228;9.112;2023-04-24T09:31:43;19.90;85.30
20546;DHT22;10431;50.228;9.112;2023-04-24T09:34:09;19.80;84.70
20546;DHT22;10431;50.228;9.112;2023-04-24T09:36:38;19.80;85.70
20546;DHT22;10431;50.228;9.112;2023-04-24T09:39:10;19.70;85.90
20546;DHT22;10431;50.228;9.112;2023-04-24T09:41:52;19.60;85.10
20546;DHT22;10431;50.228;9.112;2023-04-24T09:44:20;19.50;85.00
20546;DHT22;10431;50.228;9.112;2023-04-24T09:46:54;19.50;85.30
20546;DHT22;10431;50.228;9.112;2023-04-24T09:49:29;19.50;85.40
20546;DHT22;10431;50.228;9.112;2023-04-24T09:52:07;19.50;85.80
20546;DHT22;10431;50.228;9.112;2023-04-24T09:54:33;19.50;86.00
20546;DHT22;10431;50.228;9.112;2023-04-24T09:56:59;19.50;86.20
20546;DHT22;10431;50.228;9.112;2023-04-24T09:59:27;19.60;86.20
20546;DHT22;10431;50.228;9.112;2023-04-24T10:01:54;19.60;86.40
20546;DHT22;10431;50.228;9.112;2023-04-24T10:04:26;19.60;86.40
20546;DHT22;10431;50.228;9.112;2023-04-24T10:06:54;19.60;86.60
20546;DHT22;10431;50.228;9.112;2023-04-24T10:09:25;19.60;86.60
20546;DHT22;10431;50.228;9.112;2023-04-24T10:11:54;19.60;86.70
20546;DHT22;10431;50.228;9.112;2023-04-24T10:14:22;19.60;86.60
20546;DHT22;10431;50.228;9.112;2023-04-24T10:16:51;19.60;86.20
20546;DHT22;10431;50.228;9.112;2023-04-24T10:19:18;19.60;85.80
20546;DHT22;10431;50.228;9.112;2023-04-24T10:21:45;19.50;85.50
20546;DHT22;10431;50.228;9.112;2023-04-24T10:24:15;19.50;85.20
20546;DHT22;10431;50.228;9.112;2023-04-24T10:26:43;19.50;85.00
20546;DHT22;10431;50.228;9.112;2023-04-24T10:29:14;19.50;84.80
20546;DHT22;10431;50.228;9.112;2023-04-24T10:31:41;19.50;84.80
20546;DHT22;10431;50.228;9.112;2023-04-24T10:34:09;19.50;84.90
20546;DHT22;10431;50.228;9.112;2023-04-24T10:36:41;19.50;84.60
20546;DHT22;10431;50.228;9.112;2023-04-24T10:39:12;19.50;84.50
20546;DHT22;10431;50.228;9.112;2023-04-24T10:41:38;19.50;84.50
20546;DHT22;10431;50.228;9.112;2023-04-24T10:44:09;19.50;84.60
20546;DHT22;10431;50.228;9.112;2023-04-24T10:46:39;19.50;84.40
20546;DHT22;10431;50.228;9.112;2023-04-24T10:49:06;19.50;84.10
20546;DHT22;10431;50.228;9.112;2023-04-24T10:51:54;19.50;84.00
20546;DHT22;10431;50.228;9.112;2023-04-24T10:59:50;19.50;84.10
20546;DHT22;10431;50.228;9.112;2023-04-24T11:02:17;19.50;84.30
20546;DHT22;10431;50.228;9.112;2023-04-24T11:04:44;19.50;84.50
20546;DHT22;10431;50.228;9.112;2023-04-24T11:07:13;19.50;84.60
20546;DHT22;10431;50.228;9.112;2023-04-24T11:09:42;19.50;84.70
20546;DHT22;10431;50.228;9.112;2023-04-24T11:12:11;19.50;84.80
20546;DHT22;10431;50.228;9.112;2023-04-24T11:17:38;19.40;84.90
20546;DHT22;10431;50.228;9.112;2023-04-24T11:20:08;19.40;84.80
20546;DHT22;10431;50.228;9.112;2023-04-24T11:22:39;19.40;84.90
20546;DHT22;10431;50.228;9.112;2023-04-24T11:25:09;19.40;84.80
20546;DHT22;10431;50.228;9.112;2023-04-24T11:27:42;19.40;84.80
20546;DHT22;10431;50.228;9.112;2023-04-24T11:30:09;19.40;84.90
20546;DHT22;10431;50.228;9.112;2023-04-24T11:32:38;19.50;85.00
20546;DHT22;10431;50.228;9.112;2023-04-24T11:35:18;19.50;85.00
20546;DHT22;10431;50.228;9.112;2023-04-24T11:37:50;19.50;85.10
20546;DHT22;10431;50.228;9.112;2023-04-24T11:40:18;19.50;85.10
20546;DHT22;10431;50.228;9.112;2023-04-24T11:42:50;19.50;85.10
20546;DHT22;10431;50.228;9.112;2023-04-24T11:45:21;19.50;85.40
20546;DHT22;10431;50.228;9.112;2023-04-24T11:47:47;19.50;85.40
20546;DHT22;10431;50.228;9.112;2023-04-24T11:50:15;19.50;85.40
20546;DHT22;10431;50.228;9.112;2023-04-24T11:52:43;19.50;85.40
20546;DHT22;10431;50.228;9.112;2023-04-24T11:57:44;19.50;85.40
20546;DHT22;10431;50.228;9.112;2023-04-24T12:00:22;19.50;85.50
20546;DHT22;10431;50.228;9.112;2023-04-24T12:02:49;19.50;85.60
20546;DHT22;10431;50.228;9.112;2023-04-24T12:05:23;19.50;85.60
20546;DHT22;10431;50.228;9.112;2023-04-24T12:07:50;19.50;85.50
20546;DHT22;10431;50.228;9.112;2023-04-24T12:10:24;19.50;85.40
20546;DHT22;10431;50.228;9.112;2023-04-24T12:12:51;19.50;85.50
20546;DHT22;10431;50.228;9.112;2023-04-24T12:15:18;19.50;85.40
20546;DHT22;10431;50.228;9.112;2023-04-24T12:17:45;19.50;85.20
20546;DHT22;10431;50.228;9.112;2023-04-24T12:20:12;19.40;84.80
20546;DHT22;10431;50.228;9.112;2023-04-24T12:22:51;19.40;84.50
20546;DHT22;10431;50.228;9.112;2023-04-24T12:25:24;19.40;85.00
20546;DHT22;10431;50.228;9.112;2023-04-24T12:28:11;19.40;83.90
20546;DHT22;10431;50.228;9.112;2023-04-24T12:30:51;19.40;84.00
20546;DHT22;10431;50.228;9.112;2023-04-24T12:33:19;19.40;83.70
20546;DHT22;10431;50.228;9.112;2023-04-24T12:35:46;19.30;82.30
20546;DHT22;10431;50.228;9.112;2023-04-24T12:38:13;18.90;81.60
20546;DHT22;10431;50.228;9.112;2023-04-24T12:40:40;18.80;81.70
20546;DHT22;10431;50.228;9.112;2023-04-24T12:43:18;18.90;82.80
20546;DHT22;10431;50.228;9.112;2023-04-24T12:45:48;19.10;82.30
20546;DHT22;10431;50.228;9.112;2023-04-24T12:48:14;19.20;81.60
20546;DHT22;10431;50.228;9.112;2023-04-24T12:50:40;19.30;81.20
20546;DHT22;10431;50.228;9.112;2023-04-24T12:53:08;19.30;81.20
20546;DHT22;10431;50.228;9.112;2023-04-24T12:55:35;19.20;80.90
20546;DHT22;10431;50.228;9.112;2023-04-24T12:58:01;19.00;80.40
20546;DHT22;10431;50.228;9.112;2023-04-24T13:00:29;18.90;81.10
20546;DHT22;10431;50.228;9.112;2023-04-24T13:02:55;18.80;81.70
20546;DHT22;10431;50.228;9.112;2023-04-24T13:05:21;19.00;81.00
20546;DHT22;10431;50.228;9.112;2023-04-24T13:07:48;19.20;80.50
20546;DHT22;10431;50.228;9.112;2023-04-24T13:10:14;19.40;80.30
20546;DHT22;10431;50.228;9.112;2023-04-24T13:12:40;19.50;80.20
20546;DHT22;10431;50.228;9.112;2023-04-24T13:15:07;19.60;80.20
20546;DHT22;10431;50.228;9.112;2023-04-24T13:17:33;19.60;80.20
20546;DHT22;10431;50.228;9.112;2023-04-24T13:19:59;19.70;80.40
20546;DHT22;10431;50.228;9.112;2023-04-24T13:22:26;19.60;80.70
20546;DHT22;10431;50.228;9.112;2023-04-24T13:24:53;19.60;81.00
20546;DHT22;10431;50.228;9.112;2023-04-24T13:27:19;19.60;81.30
20546;DHT22;10431;50.228;9.112;2023-04-24T13:29:45;19.60;81.70
20546;DHT22;10431;50.228;9.112;2023-04-24T13:32:11;19.50;81.90
20546;DHT22;10431;50.228;9.112;2023-04-24T13:34:38;19.50;82.10
20546;DHT22;10431;50.228;9.112;2023-04-24T13:37:05;19.50;82.40
20546;DHT22;10431;50.228;9.112;2023-04-24T13:39:32;19.50;82.70
20546;DHT22;10431;50.228;9.112;2023-04-24T13:41:58;19.40;83.30
20546;DHT22;10431;50.228;9.112;2023-04-24T13:44:25;19.40;82.40
20546;DHT22;10431;50.228;9.112;2023-04-24T13:46:53;19.30;82.60
20546;DHT22;10431;50.228;9.112;2023-04-24T13:49:21;19.30;82.70
20546;DHT22;10431;50.228;9.112;2023-04-24T13:51:47;19.30;82.90
20546;DHT22;10431;50.228;9.112;2023-04-24T13:54:14;19.30;83.20
20546;DHT22;10431;50.228;9.112;2023-04-24T13:56:40;19.40;83.40
20546;DHT22;10431;50.228;9.112;2023-04-24T13:59:07;19.40;83.60
20546;DHT22;10431;50.228;9.112;2023-04-24T14:01:34;19.40;83.90
20546;DHT22;10431;50.228;9.112;2023-04-24T14:04:01;19.40;84.00
20546;DHT22;10431;50.228;9.112;2023-04-24T14:06:27;19.40;84.10
20546;DHT22;10431;50.228;9.112;2023-04-24T14:08:53;19.40;84.30
20546;DHT22;10431;50.228;9.112;2023-04-24T14:11:20;19.40;84.40
20546;DHT22;10431;50.228;9.112;2023-04-24T14:13:46;19.40;84.50
20546;DHT22;10431;50.228;9.112;2023-04-24T14:16:12;19.40;85.40
20546;DHT22;10431;50.228;9.112;2023-04-24T14:18:40;19.40;84.90
20546;DHT22;10431;50.228;9.112;2023-04-24T14:21:06;19.40;85.00
20546;DHT22;10431;50.228;9.112;2023-04-24T14:23:33;19.30;85.00
20546;DHT22;10431;50.228;9.112;2023-04-24T14:26:00;19.30;85.30
20546;DHT22;10431;50.228;9.112;2023-04-24T14:28:26;19.30;85.30
20546;DHT22;10431;50.228;9.112;2023-04-24T14:30:53;19.30;85.30
20546;DHT22;10431;50.228;9.112;2023-04-24T14:33:19;19.20;85.40
20546;DHT22;10431;50.228;9.112;2023-04-24T14:35:46;19.30;85.50
20546;DHT22;10431;50.228;9.112;2023-04-24T14:38:12;19.30;85.50
20546;DHT22;10431;50.228;9.112;2023-04-24T14:40:38;19.30;85.40
20546;DHT22;10431;50.228;9.112;2023-04-24T14:43:04;19.30;85.40
20546;DHT22;10431;50.228;9.112;2023-04-24T14:45:31;19.30;85.40
20546;DHT22;10431;50.228;9.112;2023-04-24T14:47:57;19.30;85.40
20546;DHT22;10431;50.228;9.112;2023-04-24T14:50:24;19.20;85.60
20546;DHT22;10431;50.228;9.112;2023-04-24T14:52:57;19.20;85.60
20546;DHT22;10431;50.228;9.112;2023-04-24T14:55:24;19.20;85.60
20546;DHT22;10431;50.228;9.112;2023-04-24T14:57:50;19.20;85.60
20546;DHT22;10431;50.228;9.112;2023-04-24T15:00:17;19.20;85.60
20546;DHT22;10431;50.228;9.112;2023-04-24T15:02:43;19.20;86.40
20546;DHT22;10431;50.228;9.112;2023-04-24T15:05:10;19.20;85.60
20546;DHT22;10431;50.228;9.112;2023-04-24T15:07:38;19.20;85.70
20546;DHT22;10431;50.228;9.112;2023-04-24T15:10:04;19.10;85.60
20546;DHT22;10431;50.228;9.112;2023-04-24T15:12:31;19.10;85.60
20546;DHT22;10431;50.228;9.112;2023-04-24T15:14:58;19.10;85.60
20546;DHT22;10431;50.228;9.112;2023-04-24T15:17:25;19.10;85.60
20546;DHT22;10431;50.228;9.112;2023-04-24T15:19:52;19.10;85.60
20546;DHT22;10431;50.228;9.112;2023-04-24T15:22:18;19.10;85.60
20546;DHT22;10431;50.228;9.112;2023-04-24T15:24:45;19.10;85.70
20546;DHT22;10431;50.228;9.112;2023-04-24T15:27:11;19.10;86.50
20546;DHT22;10431;50.228;9.112;2023-04-24T15:29:37;19.10;85.80
20546;DHT22;10431;50.228;9.112;2023-04-24T15:32:04;19.10;85.80
20546;DHT22;10431;50.228;9.112;2023-04-24T15:34:30;19.10;85.90
20546;DHT22;10431;50.228;9.112;2023-04-24T15:36:58;19.10;85.90
20546;DHT22;10431;50.228;9.112;2023-04-24T15:39:25;19.10;85.90
20546;DHT22;10431;50.228;9.112;2023-04-24T15:41:53;19.10;86.00
20546;DHT22;10431;50.228;9.112;2023-04-24T15:44:21;19.10;86.00